Time;durP1;ratioP1;P1;durP2;ratioP2;P2;SDS_P1;SDS_P2;PMS_P1;PMS_P2;Temp;Humidity;BMP_temperature;BMP_pressure;BME280_temperature;BME280_humidity;BME280_pressure;Samples;Min_cycle;Max_cycle;Signal;HPM_P1;HPM_P2
2021/04/04 00:06:59;;;;;;;29.2;20.6;;;;;;;1.42;100;98916.78;;;;
2021/04/04 00:16:57;;;;;;;25.8;19.8;;;;;;;1.41;100;98923.13;;;;
2021/04/04 00:26:54;;;;;;;21.7;16.1;;;;;;;1.31;100;98928.27;;;;
2021/04/04 00:36:52;;;;;;;21;14.2;;;;;;;1.4;100;98937.44;;;;
2021/04/04 00:46:49;;;;;;;18.7;14.5;;;;;;;1.33;100;98953.52;;;;
2021/04/04 00:56:47;;;;;;;24.6;18.1;;;;;;;1.32;100;98949.25;;;;
2021/04/04 01:06:45;;;;;;;25.6;19.2;;;;;;;1.27;100;98951.02;;;;
2021/04/04 01:16:42;;;;;;;24.2;17;;;;;;;1.24;100;98954.16;;;;
2021/04/04 01:26:40;;;;;;;21.2;16.6;;;;;;;1.23;100;98955.19;;;;
2021/04/04 01:36:38;;;;;;;19.9;17.3;;;;;;;1.2;100;98955.67;;;;
2021/04/04 01:46:35;;;;;;;31.1;20.8;;;;;;;1.29;100;98951.58;;;;
2021/04/04 01:56:33;;;;;;;27.3;19.3;;;;;;;1.24;100;98972.73;;;;
2021/04/04 02:06:31;;;;;;;30.8;17.9;;;;;;;1.27;100;98966.95;;;;
2021/04/04 02:16:28;;;;;;;24;20.6;;;;;;;1.26;100;98976.76;;;;
2021/04/04 02:26:26;;;;;;;26.6;19.2;;;;;;;1.38;100;98985.49;;;;
2021/04/04 02:36:24;;;;;;;24.3;20.2;;;;;;;1.39;100;98992.39;;;;
2021/04/04 02:46:21;;;;;;;32.3;20.5;;;;;;;1.4;100;99007.29;;;;
2021/04/04 02:56:19;;;;;;;27.1;17.4;;;;;;;1.36;100;99003.49;;;;
2021/04/04 03:06:17;;;;;;;27.3;20.3;;;;;;;1.34;100;98999.47;;;;
2021/04/04 03:16:14;;;;;;;19.8;16.8;;;;;;;1.28;100;99014.52;;;;
2021/04/04 03:26:12;;;;;;;24.6;20.6;;;;;;;1.32;100;99018.28;;;;
2021/04/04 03:36:10;;;;;;;25;16.6;;;;;;;1.31;100;99010.57;;;;
2021/04/04 03:46:07;;;;;;;20.8;17.1;;;;;;;1.33;100;99019.91;;;;
2021/04/04 03:56:05;;;;;;;18.1;16.1;;;;;;;1.28;100;99011.86;;;;
2021/04/04 04:06:02;;;;;;;22.1;17.1;;;;;;;1.21;100;99013.84;;;;
2021/04/04 04:16:00;;;;;;;22.5;17.9;;;;;;;1.08;100;99021.28;;;;
2021/04/04 04:25:58;;;;;;;19.9;16.7;;;;;;;1.08;100;99027.37;;;;
2021/04/04 04:35:55;;;;;;;25.7;18.4;;;;;;;1.1;100;99035.11;;;;
2021/04/04 04:45:53;;;;;;;20.8;18.4;;;;;;;1.23;100;99034.83;;;;
2021/04/04 04:55:51;;;;;;;21.9;17.9;;;;;;;1.28;100;99045.56;;;;
2021/04/04 05:05:48;;;;;;;32.2;17.6;;;;;;;1.56;100;99047.42;;;;
2021/04/04 05:15:46;;;;;;;19.8;11.1;;;;;;;1.76;100;99047.78;;;;
2021/04/04 05:25:44;;;;;;;16.6;13.5;;;;;;;2.01;100;99058.86;;;;
2021/04/04 05:35:41;;;;;;;15.4;11.1;;;;;;;2;100;99044.75;;;;
2021/04/04 05:45:41;;;;;;;19.5;11.5;;;;;;;2.25;100;99064.83;;;;
2021/04/04 05:55:49;;;;;;;14.8;9.8;;;;;;;2.59;100;99061.09;;;;
2021/04/04 06:06:04;;;;;;;11.7;8.3;;;;;;;2.58;100;99086.08;;;;
2021/04/04 06:15:32;;;;;;;13.7;9.6;;;;;;;2.71;100;99091.06;;;;
2021/04/04 06:25:30;;;;;;;17.1;11.8;;;;;;;2.51;100;99086.25;;;;
2021/04/04 06:35:28;;;;;;;20.5;11.9;;;;;;;2.32;100;99081.42;;;;
2021/04/04 06:45:26;;;;;;;16.2;7.4;;;;;;;2.67;100;99081.16;;;;
2021/04/04 06:55:23;;;;;;;12;8.2;;;;;;;3.33;100;99083.63;;;;
2021/04/04 07:05:22;;;;;;;19.4;12.1;;;;;;;3.55;99.55078;99088.95;;;;
2021/04/04 07:15:19;;;;;;;13.2;10.5;;;;;;;3.61;96.63086;99090.61;;;;
2021/04/04 07:25:17;;;;;;;16.5;10.7;;;;;;;3.99;94.88281;99101.15;;;;
2021/04/04 07:35:15;;;;;;;17.6;11.9;;;;;;;4.36;93.1709;99111.91;;;;
2021/04/04 07:45:13;;;;;;;10;7.4;;;;;;;4.21;90.33691;99116.3;;;;
2021/04/04 07:55:11;;;;;;;13.1;8.3;;;;;;;4.55;88.02832;99126.47;;;;
2021/04/04 08:05:09;;;;;;;9.9;5.5;;;;;;;4.67;87.35254;99120.96;;;;
2021/04/04 08:15:07;;;;;;;8.1;4.2;;;;;;;5.38;81.51172;99121.4;;;;
2021/04/04 08:25:07;;;;;;;7.5;4.4;;;;;;;5.59;83.2002;99133.77;;;;
2021/04/04 08:35:03;;;;;;;10.7;6.3;;;;;;;5.36;83.51172;99129.66;;;;
2021/04/04 08:45:01;;;;;;;8.4;6.4;;;;;;;5.13;82.78906;99127.41;;;;
2021/04/04 08:54:59;;;;;;;9.3;4.8;;;;;;;5.44;84.42676;99120.34;;;;
2021/04/04 09:04:57;;;;;;;8.5;5;;;;;;;6.52;81.73926;99113.94;;;;
2021/04/04 09:14:56;;;;;;;4.3;2.6;;;;;;;6.57;75.15527;99107.76;;;;
2021/04/04 09:24:57;;;;;;;7.9;5.4;;;;;;;6.68;74.58203;99104.01;;;;
2021/04/04 09:34:52;;;;;;;7.4;5.9;;;;;;;5.41;79.30078;99110.19;;;;
2021/04/04 09:44:50;;;;;;;13.2;7.9;;;;;;;5.2;81.17773;99103.94;;;;
2021/04/04 09:55:01;;;;;;;7.4;5.2;;;;;;;5.02;78.9082;99102.5;;;;
2021/04/04 10:04:46;;;;;;;8.4;4.3;;;;;;;5.84;78.5;99101.77;;;;
2021/04/04 10:14:45;;;;;;;8.4;4.9;;;;;;;5.62;74.51074;99090.48;;;;
2021/04/04 10:24:43;;;;;;;14.1;7.3;;;;;;;5.22;78.08594;99099.13;;;;
2021/04/04 10:34:45;;;;;;;11.2;7.7;;;;;;;4.85;80.86816;99085.84;;;;
2021/04/04 10:44:39;;;;;;;12.8;9.3;;;;;;;4.99;80.81641;99076.31;;;;
2021/04/04 10:54:38;;;;;;;6.3;3.6;;;;;;;5.49;76.49707;99081.06;;;;
2021/04/04 11:04:38;;;;;;;8.2;5.7;;;;;;;6.16;77.74414;99056.09;;;;
2021/04/04 11:14:34;;;;;;;8.3;5.3;;;;;;;6.44;75.33301;99057.43;;;;
2021/04/04 11:24:32;;;;;;;8.1;4.6;;;;;;;6.84;71.48535;99049.33;;;;
2021/04/04 11:34:31;;;;;;;7.3;4.6;;;;;;;6.81;74.37988;99033.8;;;;
2021/04/04 11:44:31;;;;;;;7.5;3.9;;;;;;;7.64;68.5957;99020.58;;;;
2021/04/04 11:54:27;;;;;;;6;3.2;;;;;;;7.35;66.10156;99012.45;;;;
2021/04/04 12:04:31;;;;;;;9.1;4.2;;;;;;;6.89;66.51465;99005.66;;;;
2021/04/04 12:14:24;;;;;;;4.5;2.7;;;;;;;7.15;70.22363;98985.7;;;;
2021/04/04 12:24:22;;;;;;;6.9;3.7;;;;;;;7.63;64.61523;98976.08;;;;
2021/04/04 12:34:20;;;;;;;8.1;3.1;;;;;;;7.51;64.68652;98978.28;;;;
2021/04/04 12:44:19;;;;;;;7.8;4.8;;;;;;;8.26;67.43359;98949.27;;;;
2021/04/04 12:54:17;;;;;;;9.2;4.4;;;;;;;8.64;66.28613;98942.19;;;;
2021/04/04 13:04:16;;;;;;;6.8;3.2;;;;;;;7.96;63.49316;98928.86;;;;
2021/04/04 13:14:15;;;;;;;4.4;2.4;;;;;;;7.31;61.95898;98914.06;;;;
2021/04/04 13:24:13;;;;;;;7.1;3.2;;;;;;;7.24;65.63574;98913.57;;;;
2021/04/04 13:34:11;;;;;;;6.7;3;;;;;;;7.44;62.75391;98891.98;;;;
2021/04/04 13:44:10;;;;;;;9.4;7.3;;;;;;;7.14;65.53125;98893;;;;
2021/04/04 13:54:08;;;;;;;6.2;3.9;;;;;;;7.49;65.57227;98875.88;;;;
2021/04/04 14:04:06;;;;;;;7.4;4.4;;;;;;;7.95;62.85059;98863.64;;;;
2021/04/04 14:14:05;;;;;;;9.5;5.7;;;;;;;8.87;63.53711;98856.17;;;;
2021/04/04 14:24:03;;;;;;;8.5;6.2;;;;;;;9.04;61.03125;98844.91;;;;
2021/04/04 14:34:02;;;;;;;6.9;4.5;;;;;;;9.1;58.68945;98849.12;;;;
2021/04/04 14:44:11;;;;;;;7.5;4.2;;;;;;;8.28;60.62012;98837;;;;
2021/04/04 14:53:59;;;;;;;7.7;3.5;;;;;;;7.86;58.6582;98819.73;;;;
2021/04/04 15:03:57;;;;;;;4.6;2.6;;;;;;;8.14;58.95508;98807.36;;;;
2021/04/04 15:13:56;;;;;;;7.2;3.1;;;;;;;7.5;60.1416;98803.17;;;;
2021/04/04 15:23:54;;;;;;;4.6;3.4;;;;;;;7.63;63.98438;98790.2;;;;
2021/04/04 15:33:55;;;;;;;6.9;4.1;;;;;;;8.17;60.13184;98781.82;;;;
2021/04/04 15:43:52;;;;;;;7.8;4.2;;;;;;;10.27;54.41211;98777.97;;;;
2021/04/04 15:53:50;;;;;;;12.4;5.4;;;;;;;10.63;51.59473;98762.63;;;;
2021/04/04 16:03:49;;;;;;;7.4;4.9;;;;;;;10.89;50.11133;98752.88;;;;
2021/04/04 16:13:48;;;;;;;12.8;5.5;;;;;;;11.19;50.06543;98745.95;;;;
2021/04/04 16:23:47;;;;;;;8.2;5.6;;;;;;;11.4;47.0918;98730.86;;;;
2021/04/04 16:33:46;;;;;;;7.7;5.6;;;;;;;9.7;50.34961;98728.96;;;;
2021/04/04 16:43:45;;;;;;;8;5.3;;;;;;;7.68;55.03711;98731.92;;;;
2021/04/04 16:53:43;;;;;;;9;7.5;;;;;;;6.37;59.24316;98720.42;;;;
2021/04/04 17:03:41;;;;;;;13.5;9.6;;;;;;;5.41;62.97461;98706.6;;;;
2021/04/04 17:13:40;;;;;;;13;9.2;;;;;;;4.55;65.08301;98709.29;;;;
2021/04/04 17:23:38;;;;;;;16.4;10.8;;;;;;;3.8;68.0127;98708.03;;;;
2021/04/04 17:33:38;;;;;;;13.6;9.7;;;;;;;3.18;70.74609;98717.81;;;;
2021/04/04 17:43:33;;;;;;;19.4;10.7;;;;;;;2.69;71.04297;98709.19;;;;
2021/04/04 17:53:31;;;;;;;13.6;10.9;;;;;;;2.22;74.87598;98711.67;;;;
2021/04/04 18:03:30;;;;;;;14.9;10.4;;;;;;;1.81;73.60938;98721.83;;;;
2021/04/04 18:13:27;;;;;;;13.4;10;;;;;;;1.43;75.14746;98713.89;;;;
2021/04/04 18:23:24;;;;;;;15.8;9.9;;;;;;;1.25;78.13086;98707.02;;;;
2021/04/04 18:33:22;;;;;;;19.6;15.1;;;;;;;1.41;79.50684;98702.73;;;;
2021/04/04 18:43:19;;;;;;;23.3;15.7;;;;;;;1.37;81.04297;98696.3;;;;
2021/04/04 18:53:17;;;;;;;19.6;14.9;;;;;;;1.41;80.81934;98686.8;;;;
2021/04/04 19:03:16;;;;;;;24.3;14.6;;;;;;;1.36;81.13965;98681.41;;;;
2021/04/04 19:13:12;;;;;;;28.2;17.6;;;;;;;1.25;82.06738;98669.84;;;;
2021/04/04 19:23:10;;;;;;;24.1;18.8;;;;;;;1.14;84.14941;98669.97;;;;
2021/04/04 19:33:07;;;;;;;24.9;16.9;;;;;;;1.11;82.96387;98662.5;;;;
2021/04/04 19:43:05;;;;;;;21.4;16.3;;;;;;;1.09;81.80566;98654.77;;;;
2021/04/04 19:53:02;;;;;;;19.8;15.2;;;;;;;1.02;82.73926;98630.26;;;;
2021/04/04 20:03:01;;;;;;;20;15.7;;;;;;;0.93;83.06543;98616.63;;;;
2021/04/04 20:12:57;;;;;;;17.8;14.9;;;;;;;0.83;84.53027;98605.06;;;;
2021/04/04 20:22:55;;;;;;;25.5;17.3;;;;;;;0.66;86.54199;98599.77;;;;
2021/04/04 20:32:52;;;;;;;26;15.5;;;;;;;0.63;85.96289;98589.64;;;;
2021/04/04 20:42:50;;;;;;;27.6;17.9;;;;;;;0.59;86.46191;98577.91;;;;
2021/04/04 20:52:47;;;;;;;24.9;15.8;;;;;;;0.5;86.9707;98564.28;;;;
2021/04/04 21:02:45;;;;;;;21.1;16;;;;;;;0.42;87.8877;98550.61;;;;
2021/04/04 21:12:42;;;;;;;22.9;17.7;;;;;;;0.38;88.71289;98544.22;;;;
2021/04/04 21:22:41;;;;;;;23.1;16.2;;;;;;;0.4;88.11328;98536.81;;;;
2021/04/04 21:32:39;;;;;;;18.5;15.4;;;;;;;0.37;87.23047;98522.2;;;;
2021/04/04 21:42:35;;;;;;;18.4;13.9;;;;;;;0.4;87.41016;98518.26;;;;
2021/04/04 21:52:32;;;;;;;16.8;11.8;;;;;;;0.45;85.70703;98497.14;;;;
2021/04/04 22:02:30;;;;;;;17.5;13.5;;;;;;;0.4;85.2793;98481.15;;;;
2021/04/04 22:12:27;;;;;;;14.9;10.4;;;;;;;0.3;85.42383;98481.01;;;;
2021/04/04 22:22:24;;;;;;;18.8;11.8;;;;;;;0.24;85.60938;98460.79;;;;
2021/04/04 22:32:22;;;;;;;17.8;11.1;;;;;;;0.13;84.39063;98446.59;;;;
2021/04/04 22:42:19;;;;;;;16.8;10.5;;;;;;;0.05;83.72852;98433.75;;;;
2021/04/04 22:52:17;;;;;;;14.4;10.5;;;;;;;0.09;83.16211;98418.17;;;;
2021/04/04 23:02:14;;;;;;;13.8;10.6;;;;;;;0.24;82.38965;98405.14;;;;
2021/04/04 23:12:11;;;;;;;14.8;7.9;;;;;;;0.27;82.48438;98378.14;;;;
2021/04/04 23:22:09;;;;;;;19.1;9.5;;;;;;;0.18;82.73145;98350.45;;;;
2021/04/04 23:32:06;;;;;;;10.3;7.6;;;;;;;0.25;82.33789;98337.81;;;;
2021/04/04 23:42:04;;;;;;;10.8;7.7;;;;;;;0.32;82.35156;98325.98;;;;
2021/04/04 23:52:01;;;;;;;15.1;8.6;;;;;;;0.45;81.375;98308.92;;;;
